Time;durP1;ratioP1;P1;durP2;ratioP2;P2;SDS_P1;SDS_P2;PMS_P1;PMS_P2;Temp;Humidity;BMP_temperature;BMP_pressure;BME280_temperature;BME280_humidity;BME280_pressure;Samples;Min_cycle;Max_cycle;Signal;HPM_P1;HPM_P2
2022/06/10 00:00:37;;;;;;;8.38;2.85;;;14.80;99.90;;;;;;5053032;28;20061;-64
2022/06/10 00:03:04;;;;;;;8.32;2.53;;;14.80;99.90;;;;;;5050516;28;20446;-62
2022/06/10 00:05:31;;;;;;;9.30;2.63;;;14.80;99.90;;;;;;5049911;28;20053;-60
2022/06/10 00:07:57;;;;;;;9.88;2.80;;;14.70;99.90;;;;;;5049729;28;20079;-61
2022/06/10 00:10:25;;;;;;;8.40;2.50;;;14.70;99.90;;;;;;5050619;28;20044;-61
2022/06/10 00:12:50;;;;;;;9.23;2.83;;;14.70;99.90;;;;;;5049440;28;20128;-62
2022/06/10 00:15:17;;;;;;;11.15;2.53;;;14.70;99.90;;;;;;5049780;28;20116;-61
2022/06/10 00:17:43;;;;;;;10.55;2.88;;;14.70;99.90;;;;;;5048952;28;20117;-62
2022/06/10 00:20:13;;;;;;;7.90;2.65;;;14.60;99.90;;;;;;5049634;28;20124;-62
2022/06/10 00:22:39;;;;;;;7.95;2.40;;;14.60;99.90;;;;;;5049166;28;20106;-60
2022/06/10 00:25:05;;;;;;;7.97;2.78;;;14.60;99.90;;;;;;5048614;28;20095;-61
2022/06/10 00:27:31;;;;;;;12.10;3.13;;;14.60;99.90;;;;;;5050316;28;20086;-61
2022/06/10 00:29:57;;;;;;;10.07;2.47;;;14.50;99.90;;;;;;5050403;28;20045;-65
2022/06/10 00:32:23;;;;;;;11.27;2.90;;;14.50;99.90;;;;;;5050140;28;20055;-60
2022/06/10 00:34:48;;;;;;;10.52;3.00;;;14.50;99.90;;;;;;5050113;28;20088;-60
2022/06/10 00:37:14;;;;;;;11.10;3.05;;;14.50;99.90;;;;;;5049619;28;20447;-60
2022/06/10 00:39:40;;;;;;;8.82;3.00;;;14.40;99.90;;;;;;5049340;28;20045;-61
2022/06/10 00:42:07;;;;;;;8.63;2.50;;;14.50;99.90;;;;;;5049674;28;20049;-61
2022/06/10 00:44:44;;;;;;;10.63;2.47;;;14.50;99.90;;;;;;5050021;28;20053;-61
2022/06/10 00:47:19;;;;;;;6.78;2.60;;;14.50;99.90;;;;;;5048218;28;20069;-60
2022/06/10 00:50:25;;;;;;;12.73;3.25;;;14.40;99.90;;;;;;5049976;28;20536;-64
2022/06/10 00:52:58;;;;;;;9.15;2.58;;;14.40;99.90;;;;;;5049343;28;20060;-63
2022/06/10 00:55:28;;;;;;;10.60;2.90;;;14.40;99.90;;;;;;5050999;28;20049;-64
2022/06/10 00:58:27;;;;;;;7.43;2.55;;;14.40;99.90;;;;;;5050529;28;20113;-63
2022/06/10 01:00:54;;;;;;;9.93;2.70;;;14.40;99.90;;;;;;5082906;28;20061;-63
2022/06/10 01:03:19;;;;;;;9.20;2.40;;;14.40;99.90;;;;;;5049794;28;20060;-64
2022/06/10 01:05:45;;;;;;;7.28;2.13;;;14.40;99.90;;;;;;5049920;28;20409;-65
2022/06/10 01:08:15;;;;;;;6.63;2.30;;;14.40;99.90;;;;;;5050564;28;20461;-64
2022/06/10 01:11:16;;;;;;;9.65;2.60;;;14.40;99.90;;;;;;5051043;28;20118;-64
2022/06/10 01:14:08;;;;;;;10.32;2.58;;;14.30;99.90;;;;;;5074920;28;20498;-63
2022/06/10 01:16:42;;;;;;;8.38;2.65;;;14.30;99.90;;;;;;5050988;28;20365;-63
2022/06/10 01:19:27;;;;;;;;;;;14.30;99.90;;;;;;5051066;28;20124;-63
2022/06/10 01:21:53;;;;;;;7.90;2.45;;;14.30;99.90;;;;;;5051208;28;19921;-63
2022/06/10 01:24:41;;;;;;;8.35;2.80;;;14.20;99.90;;;;;;5052330;28;20053;-63
2022/06/10 01:27:49;;;;;;;7.25;2.50;;;14.30;99.90;;;;;;5054388;28;20090;-63
2022/06/10 01:30:49;;;;;;;9.10;2.80;;;14.20;99.90;;;;;;5054342;28;20053;-65
2022/06/10 01:34:01;;;;;;;7.97;3.10;;;14.20;99.90;;;;;;5054141;28;20138;-63
2022/06/10 01:36:48;;;;;;;10.77;2.72;;;14.10;99.90;;;;;;5053206;28;20115;-64
2022/06/10 01:39:36;;;;;;;8.95;2.75;;;14.10;99.90;;;;;;5054157;28;20044;-64
2022/06/10 01:42:08;;;;;;;7.47;2.60;;;14.10;99.90;;;;;;5070020;28;20049;-63
2022/06/10 01:44:47;;;;;;;8.55;2.70;;;14.10;99.90;;;;;;5054282;28;20118;-63
2022/06/10 01:47:24;;;;;;;8.52;2.70;;;14.10;99.90;;;;;;5053012;28;20049;-63
2022/06/10 01:50:03;;;;;;;9.38;2.60;;;14.00;99.90;;;;;;5053004;28;20107;-63
2022/06/10 01:52:32;;;;;;;8.82;2.78;;;14.00;99.90;;;;;;5053947;28;20190;-63
2022/06/10 01:55:35;;;;;;;13.40;3.88;;;14.00;99.90;;;;;;5052771;28;20051;-63
2022/06/10 01:58:16;;;;;;;7.78;3.00;;;13.90;99.90;;;;;;5054126;28;20053;-65
2022/06/10 02:00:47;;;;;;;9.75;2.92;;;13.90;99.90;;;;;;5053146;28;20056;-64
2022/06/10 02:03:44;;;;;;;13.15;3.28;;;13.80;99.90;;;;;;5053731;28;20051;-63
2022/06/10 02:06:18;;;;;;;8.82;3.35;;;13.80;99.90;;;;;;5052807;28;20568;-63
2022/06/10 02:08:52;;;;;;;8.98;3.22;;;13.70;99.90;;;;;;5069016;28;20056;-63
2022/06/10 02:11:20;;;;;;;;;;;13.70;99.90;;;;;;5053941;28;20332;-63
2022/06/10 02:13:55;;;;;;;10.07;3.22;;;13.60;99.90;;;;;;5053592;28;19921;-64
2022/06/10 02:16:30;;;;;;;10.95;3.60;;;13.60;99.90;;;;;;5053376;28;20132;-63
2022/06/10 02:19:00;;;;;;;7.07;2.80;;;13.60;99.90;;;;;;5052248;28;20053;-63
2022/06/10 02:21:43;;;;;;;8.57;2.80;;;13.50;99.90;;;;;;5053320;28;20052;-63
2022/06/10 02:24:25;;;;;;;9.45;3.40;;;13.50;99.90;;;;;;5053617;28;20129;-63
2022/06/10 02:26:53;;;;;;;13.80;3.63;;;13.50;99.90;;;;;;5053487;28;20052;-63
2022/06/10 02:29:28;;;;;;;10.15;3.33;;;13.40;99.90;;;;;;5052039;28;20541;-63
2022/06/10 02:31:59;;;;;;;10.60;3.00;;;13.40;99.90;;;;;;5053296;28;20048;-62
2022/06/10 02:34:28;;;;;;;8.23;3.63;;;13.40;99.90;;;;;;5052932;28;20080;-62
2022/06/10 02:37:35;;;;;;;13.63;2.95;;;13.40;99.90;;;;;;5052547;28;20076;-62
2022/06/10 02:40:08;;;;;;;10.95;3.65;;;13.40;99.90;;;;;;5033758;28;20434;-62
2022/06/10 02:43:13;;;;;;;9.77;3.35;;;13.30;99.90;;;;;;5052552;28;20065;-63
2022/06/10 02:45:59;;;;;;;8.57;3.00;;;13.30;99.90;;;;;;5051641;28;20119;-63
2022/06/10 02:49:04;;;;;;;10.85;2.85;;;13.30;99.90;;;;;;5053095;28;20132;-63
2022/06/10 02:51:31;;;;;;;9.75;3.08;;;13.30;99.90;;;;;;5052592;28;20060;-62
2022/06/10 02:53:57;;;;;;;10.63;3.47;;;13.30;99.90;;;;;;5052944;28;20114;-62
2022/06/10 02:56:27;;;;;;;17.98;3.88;;;13.20;99.90;;;;;;5052450;28;20152;-63
2022/06/10 03:02:12;;;;;;;15.15;3.53;;;13.20;99.90;;;;;;5052522;28;20059;-63
2022/06/10 03:05:00;;;;;;;9.07;3.15;;;13.20;99.90;;;;;;5050732;28;20135;-62
2022/06/10 03:07:45;;;;;;;8.73;3.17;;;13.20;99.90;;;;;;5052367;28;20068;-63
2022/06/10 03:10:59;;;;;;;10.50;3.25;;;13.20;99.90;;;;;;5052682;28;20115;-63
2022/06/10 03:14:01;;;;;;;10.20;3.30;;;13.20;99.90;;;;;;5065937;28;20053;-62
2022/06/10 03:16:56;;;;;;;9.90;3.00;;;13.10;99.90;;;;;;5023099;28;20055;-63
2022/06/10 03:19:44;;;;;;;8.25;3.33;;;13.10;99.90;;;;;;5052271;28;20049;-64
2022/06/10 03:22:38;;;;;;;17.80;3.85;;;13.10;99.90;;;;;;5052501;28;20124;-62
2022/06/10 03:25:21;;;;;;;11.50;3.63;;;13.10;99.90;;;;;;5052144;28;20049;-63
2022/06/10 03:28:16;;;;;;;14.85;3.92;;;13.10;99.90;;;;;;5052335;28;20378;-63
2022/06/10 03:30:57;;;;;;;12.52;3.50;;;13.10;99.90;;;;;;5051926;28;20049;-63
2022/06/10 03:33:39;;;;;;;14.25;3.80;;;13.10;99.90;;;;;;5050899;28;20151;-68
2022/06/10 03:36:12;;;;;;;11.93;3.40;;;13.10;99.90;;;;;;5052167;28;20500;-62
2022/06/10 03:38:41;;;;;;;10.32;3.38;;;13.10;99.90;;;;;;5051638;28;20041;-62
2022/06/10 03:41:08;;;;;;;9.10;3.13;;;13.10;99.90;;;;;;5052031;28;20048;-62
2022/06/10 03:43:38;;;;;;;8.65;2.88;;;13.00;99.90;;;;;;5052287;28;20041;-63
2022/06/10 03:46:08;;;;;;;14.73;3.92;;;13.00;99.90;;;;;;5050606;28;20055;-63
2022/06/10 03:48:37;;;;;;;12.90;3.25;;;13.00;99.90;;;;;;5050383;28;20056;-63
2022/06/10 03:51:03;;;;;;;5.55;2.80;;;13.10;99.90;;;;;;5050611;28;20444;-62
2022/06/10 03:53:29;;;;;;;9.35;3.00;;;13.10;99.90;;;;;;5050323;28;20040;-63
2022/06/10 03:55:55;;;;;;;12.27;3.03;;;13.10;99.90;;;;;;5050275;28;20041;-62
2022/06/10 03:58:21;;;;;;;10.73;3.42;;;13.10;99.90;;;;;;5051629;28;20060;-63
2022/06/10 04:00:47;;;;;;;11.27;3.47;;;13.10;99.90;;;;;;5050382;28;20088;-62
2022/06/10 04:03:13;;;;;;;13.23;3.28;;;13.20;99.90;;;;;;5051715;28;20053;-62
2022/06/10 04:05:39;;;;;;;15.25;3.20;;;13.10;99.90;;;;;;5051238;28;20127;-62
2022/06/10 04:08:06;;;;;;;11.85;3.35;;;13.20;99.90;;;;;;5050527;28;20053;-63
2022/06/10 04:10:32;;;;;;;8.65;2.55;;;13.30;99.90;;;;;;5050244;28;20048;-62
2022/06/10 04:12:58;;;;;;;10.65;3.03;;;13.30;99.90;;;;;;5050391;28;20060;-62
2022/06/10 04:15:27;;;;;;;7.03;2.60;;;13.30;99.90;;;;;;5051456;28;20045;-63
2022/06/10 04:17:55;;;;;;;10.25;3.22;;;13.30;99.90;;;;;;5049533;28;20041;-63
2022/06/10 04:20:28;;;;;;;9.68;2.65;;;13.40;99.90;;;;;;5051342;28;20126;-63
2022/06/10 04:22:54;;;;;;;9.52;3.20;;;13.40;99.90;;;;;;5051331;28;20101;-62
2022/06/10 04:25:20;;;;;;;9.73;3.28;;;13.50;99.90;;;;;;5051416;28;20130;-63
2022/06/10 04:27:46;;;;;;;14.90;3.17;;;13.50;99.90;;;;;;5049951;28;20512;-62
2022/06/10 04:30:34;;;;;;;12.18;2.95;;;13.60;99.90;;;;;;5051294;28;20073;-62
2022/06/10 04:33:00;;;;;;;15.05;3.10;;;13.70;99.90;;;;;;5050265;28;20056;-63
2022/06/10 04:35:27;;;;;;;9.98;3.13;;;13.80;99.90;;;;;;5051352;28;20045;-63
2022/06/10 04:37:55;;;;;;;8.98;2.95;;;13.80;99.90;;;;;;5050953;28;20056;-62
2022/06/10 04:40:24;;;;;;;14.25;3.45;;;14.00;99.90;;;;;;5051061;28;20053;-62
2022/06/10 04:42:50;;;;;;;12.15;3.17;;;14.10;99.90;;;;;;5050608;28;20045;-62
2022/06/10 04:45:19;;;;;;;11.63;2.92;;;14.20;99.90;;;;;;5051341;28;20095;-64
2022/06/10 04:47:44;;;;;;;11.50;3.03;;;14.60;99.90;;;;;;5050891;28;20076;-61
2022/06/10 04:50:12;;;;;;;6.15;2.35;;;15.20;99.90;;;;;;5049895;28;20110;-63
2022/06/10 04:52:38;;;;;;;14.10;2.95;;;15.90;99.90;;;;;;5050870;28;20049;-63
2022/06/10 04:55:05;;;;;;;9.80;3.00;;;16.70;99.90;;;;;;5049900;28;20049;-62
2022/06/10 04:57:32;;;;;;;9.65;2.58;;;17.50;99.90;;;;;;5050160;28;20055;-63
2022/06/10 04:59:57;;;;;;;9.43;2.78;;;18.20;99.90;;;;;;5053416;28;20057;-63
2022/06/10 05:02:23;;;;;;;9.05;2.70;;;18.80;99.90;;;;;;5070445;28;20063;-64
2022/06/10 05:04:49;;;;;;;11.23;2.90;;;18.90;99.90;;;;;;5054654;28;20052;-62
2022/06/10 05:07:14;;;;;;;10.40;2.92;;;18.60;99.90;;;;;;5054915;28;20122;-63
2022/06/10 05:09:40;;;;;;;7.40;2.67;;;18.30;99.90;;;;;;5055007;28;20460;-63
2022/06/10 05:12:07;;;;;;;13.07;3.38;;;18.00;99.90;;;;;;5053987;28;20045;-64
2022/06/10 05:14:34;;;;;;;9.20;2.55;;;17.60;99.90;;;;;;5070146;28;20053;-63
2022/06/10 05:17:01;;;;;;;12.48;3.15;;;17.40;99.90;;;;;;5054590;28;20391;-63
2022/06/10 05:19:27;;;;;;;7.35;2.55;;;17.10;99.90;;;;;;5053532;28;20401;-65
2022/06/10 05:21:53;;;;;;;11.25;2.92;;;16.80;99.90;;;;;;5054304;28;20123;-63
2022/06/10 05:24:19;;;;;;;9.60;2.88;;;16.60;99.90;;;;;;5053648;28;20057;-63
2022/06/10 05:26:45;;;;;;;7.75;2.97;;;16.40;99.90;;;;;;5053023;28;20088;-62
2022/06/10 05:29:11;;;;;;;8.02;2.80;;;16.30;99.90;;;;;;5054531;28;20502;-63
2022/06/10 05:31:36;;;;;;;13.40;2.85;;;16.10;99.90;;;;;;5053137;28;20140;-64
2022/06/10 05:36:46;;;;;;;8.38;2.70;;;16.10;99.90;;;;;;5052739;28;20552;-63
2022/06/10 05:39:12;;;;;;;10.88;2.75;;;16.00;99.90;;;;;;5053173;28;20289;-63
2022/06/10 05:44:24;;;;;;;7.40;2.20;;;16.00;99.90;;;;;;5054148;28;20053;-64
2022/06/10 05:46:50;;;;;;;12.18;3.10;;;16.00;99.90;;;;;;5052923;28;20078;-62
2022/06/10 05:49:16;;;;;;;10.35;3.00;;;15.90;99.90;;;;;;5054141;28;20468;-61
2022/06/10 05:51:41;;;;;;;13.57;3.05;;;16.00;99.90;;;;;;5069698;28;20052;-63
2022/06/10 05:54:07;;;;;;;12.05;2.78;;;16.00;99.90;;;;;;5053790;28;20048;-63
2022/06/10 05:56:33;;;;;;;12.48;2.97;;;16.00;99.90;;;;;;5053146;28;20182;-64
2022/06/10 05:58:58;;;;;;;7.80;3.00;;;16.00;99.90;;;;;;5035650;28;20068;-63
2022/06/10 06:01:24;;;;;;;10.13;2.83;;;16.10;99.90;;;;;;5052822;28;20056;-63
2022/06/10 06:03:50;;;;;;;12.73;3.05;;;16.10;99.90;;;;;;5053650;28;20414;-63
2022/06/10 06:06:15;;;;;;;12.95;3.15;;;16.10;99.90;;;;;;5053553;28;20048;-63
2022/06/10 06:08:41;;;;;;;10.32;3.00;;;16.10;99.90;;;;;;5053760;28;20072;-64
2022/06/10 06:11:07;;;;;;;12.27;3.25;;;16.20;99.90;;;;;;5067653;28;20472;-65
2022/06/10 06:13:33;;;;;;;10.85;2.85;;;16.30;99.90;;;;;;5053542;28;20053;-64
2022/06/10 06:15:58;;;;;;;10.57;2.45;;;16.40;99.90;;;;;;5052372;28;20045;-64
2022/06/10 06:18:25;;;;;;;10.57;3.13;;;16.40;99.90;;;;;;5053619;28;20084;-63
2022/06/10 06:20:50;;;;;;;15.90;3.42;;;16.50;99.90;;;;;;5053468;28;20041;-63
2022/06/10 06:23:16;;;;;;;9.05;2.58;;;16.60;99.90;;;;;;5053550;28;20540;-62
2022/06/10 06:25:44;;;;;;;10.73;3.28;;;16.70;99.90;;;;;;5069012;28;20084;-64
2022/06/10 06:28:10;;;;;;;11.63;3.25;;;16.90;99.90;;;;;;5052453;28;20084;-63
2022/06/10 06:30:37;;;;;;;11.02;2.83;;;17.10;99.90;;;;;;5053347;28;20087;-63
2022/06/10 06:33:06;;;;;;;11.23;3.15;;;17.50;99.90;;;;;;5053002;28;20489;-65
2022/06/10 06:35:33;;;;;;;11.80;2.95;;;17.80;99.90;;;;;;5053400;28;20080;-66
2022/06/10 06:37:59;;;;;;;8.38;2.85;;;17.90;99.90;;;;;;5052955;28;20067;-64
2022/06/10 06:40:25;;;;;;;11.02;3.15;;;17.80;99.90;;;;;;5053338;28;20045;-64
2022/06/10 06:42:51;;;;;;;10.88;3.25;;;17.70;99.90;;;;;;5053184;28;20088;-66
2022/06/10 06:45:19;;;;;;;12.20;3.60;;;17.70;99.90;;;;;;5052685;28;20088;-64
2022/06/10 06:47:45;;;;;;;11.18;3.35;;;17.60;99.90;;;;;;5052889;28;20081;-64
2022/06/10 06:50:15;;;;;;;8.90;3.85;;;17.40;99.90;;;;;;5052904;28;20076;-64
2022/06/10 06:52:42;;;;;;;10.23;3.55;;;17.30;99.90;;;;;;5053243;28;20057;-64
2022/06/10 06:55:08;;;;;;;12.50;3.85;;;17.10;99.90;;;;;;5052745;28;20051;-63
2022/06/10 06:57:33;;;;;;;11.68;4.07;;;16.90;99.90;;;;;;5053139;28;20048;-63
2022/06/10 07:00:06;;;;;;;13.57;4.10;;;16.90;99.90;;;;;;5052507;28;20151;-62
2022/06/10 07:02:35;;;;;;;12.80;4.07;;;16.90;99.90;;;;;;5053089;28;20131;-62
2022/06/10 07:05:03;;;;;;;10.65;3.90;;;16.80;99.90;;;;;;5052676;28;20064;-64
2022/06/10 07:07:29;;;;;;;18.63;4.60;;;16.90;99.90;;;;;;5051801;28;20075;-64
2022/06/10 07:09:55;;;;;;;10.52;3.88;;;16.90;99.90;;;;;;5034875;28;20076;-71
2022/06/10 07:12:20;;;;;;;14.25;4.75;;;16.90;99.90;;;;;;5052749;28;20083;-63
2022/06/10 07:14:46;;;;;;;10.40;3.63;;;17.00;99.90;;;;;;5051437;28;20509;-63
2022/06/10 07:17:12;;;;;;;11.38;4.07;;;17.10;99.90;;;;;;5052151;28;20052;-65
2022/06/10 07:19:38;;;;;;;10.50;3.75;;;17.10;99.90;;;;;;5051469;28;20045;-66
2022/06/10 07:22:06;;;;;;;12.93;3.83;;;17.40;99.90;;;;;;5051879;28;20123;-64
2022/06/10 07:24:32;;;;;;;12.32;3.65;;;17.60;99.90;;;;;;5051486;28;20119;-65
2022/06/10 07:27:00;;;;;;;13.50;3.60;;;17.70;99.90;;;;;;5052077;28;20048;-71
2022/06/10 07:29:27;;;;;;;9.18;3.65;;;17.70;99.90;;;;;;5052330;28;20049;-65
2022/06/10 07:31:53;;;;;;;12.77;3.83;;;17.70;99.90;;;;;;5052341;28;20379;-65
2022/06/10 07:34:20;;;;;;;10.88;3.83;;;17.60;99.90;;;;;;5050928;28;20049;-64
2022/06/10 07:36:45;;;;;;;10.80;3.90;;;17.60;99.90;;;;;;5052143;28;20049;-64
2022/06/10 07:39:11;;;;;;;10.77;3.70;;;17.50;99.90;;;;;;5067018;28;20041;-65
2022/06/10 07:44:21;;;;;;;11.05;3.78;;;17.50;99.90;;;;;;5050864;28;20057;-64
2022/06/10 07:46:48;;;;;;;10.50;4.38;;;17.40;99.90;;;;;;5051536;28;20044;-63
2022/06/10 07:49:20;;;;;;;9.00;4.53;;;17.30;99.90;;;;;;5050612;28;20056;-64
2022/06/10 07:51:46;;;;;;;10.30;3.78;;;17.30;99.90;;;;;;5051752;28;20107;-64
2022/06/10 07:54:12;;;;;;;8.55;4.20;;;17.40;99.90;;;;;;5051479;28;20130;-64
2022/06/10 07:56:39;;;;;;;11.00;4.40;;;17.50;99.90;;;;;;5067511;28;20049;-64
2022/06/10 07:59:05;;;;;;;11.40;4.30;;;17.80;99.90;;;;;;5050026;28;20049;-63
2022/06/10 08:01:33;;;;;;;10.70;4.13;;;18.00;99.90;;;;;;5051965;28;20115;-63
2022/06/10 08:03:59;;;;;;;9.13;3.85;;;18.10;99.90;;;;;;5051745;28;20414;-66
2022/06/10 08:06:27;;;;;;;11.65;4.22;;;18.10;99.90;;;;;;5051539;28;20184;-63
2022/06/10 08:08:53;;;;;;;7.75;3.75;;;18.20;99.90;;;;;;5051629;28;20041;-64
2022/06/10 08:11:19;;;;;;;6.88;3.92;;;18.30;99.90;;;;;;5051507;28;20053;-64
2022/06/10 08:13:46;;;;;;;8.18;3.63;;;18.20;99.90;;;;;;5051574;28;20080;-64
2022/06/10 08:16:13;;;;;;;11.23;3.75;;;18.30;99.90;;;;;;5051350;28;20044;-65
2022/06/10 08:18:38;;;;;;;9.18;3.95;;;18.20;99.90;;;;;;5050455;28;20045;-64
2022/06/10 08:23:50;;;;;;;8.88;4.20;;;18.00;99.90;;;;;;5051661;28;20409;-63
2022/06/10 08:26:16;;;;;;;8.57;3.70;;;17.80;99.90;;;;;;5050986;28;20115;-63
2022/06/10 08:28:45;;;;;;;7.40;3.60;;;17.80;99.90;;;;;;5051565;28;20037;-64
2022/06/10 08:31:11;;;;;;;7.90;4.00;;;17.80;99.90;;;;;;5051015;28;20520;-63
2022/06/10 08:33:37;;;;;;;9.25;4.32;;;17.80;99.90;;;;;;5050837;28;20090;-64
2022/06/10 08:36:04;;;;;;;8.38;4.22;;;17.80;99.90;;;;;;5050520;28;20478;-64
2022/06/10 08:38:30;;;;;;;10.02;4.70;;;17.70;99.90;;;;;;5050976;28;20381;-65
2022/06/10 08:41:09;;;;;;;8.55;4.32;;;17.70;99.90;;;;;;5066984;28;20045;-64
2022/06/10 08:43:55;;;;;;;11.07;4.55;;;17.60;99.90;;;;;;5050538;28;20049;-64
2022/06/10 08:46:38;;;;;;;10.95;4.55;;;17.50;99.90;;;;;;5050682;28;20139;-64
2022/06/10 08:49:19;;;;;;;8.05;4.70;;;17.50;99.90;;;;;;5066186;28;20107;-64
2022/06/10 08:52:06;;;;;;;9.07;4.82;;;17.70;99.90;;;;;;5051030;28;20157;-64
2022/06/10 08:54:37;;;;;;;14.55;5.18;;;17.70;99.90;;;;;;5050922;28;20049;-64
2022/06/10 08:57:11;;;;;;;14.23;4.60;;;17.80;99.90;;;;;;5051279;28;20414;-63
2022/06/10 08:59:43;;;;;;;12.48;4.97;;;17.90;99.90;;;;;;5049670;28;20064;-65
2022/06/10 09:02:08;;;;;;;11.95;4.40;;;17.90;99.90;;;;;;5051091;28;20095;-64
2022/06/10 09:04:58;;;;;;;10.40;4.68;;;18.00;99.90;;;;;;5050825;28;20487;-64
2022/06/10 09:07:43;;;;;;;10.15;4.57;;;18.00;99.90;;;;;;5050757;28;20482;-63
2022/06/10 09:10:32;;;;;;;10.52;4.90;;;18.00;99.90;;;;;;5050750;28;20486;-63
2022/06/10 09:13:40;;;;;;;13.35;4.35;;;18.00;99.90;;;;;;5051242;28;20347;-63
2022/06/10 09:16:27;;;;;;;13.15;4.70;;;18.00;99.90;;;;;;5050615;28;20063;-65
2022/06/10 09:19:10;;;;;;;12.88;4.80;;;18.00;99.90;;;;;;5050827;28;20041;-64
2022/06/10 09:21:42;;;;;;;11.65;5.30;;;18.10;99.90;;;;;;5049256;28;20045;-65
2022/06/10 09:24:18;;;;;;;11.77;5.28;;;18.20;99.90;;;;;;5050606;28;20216;-65
2022/06/10 09:26:54;;;;;;;11.63;5.53;;;18.40;99.90;;;;;;5050655;28;20076;-65
2022/06/10 09:29:19;;;;;;;11.30;5.20;;;18.50;99.90;;;;;;5050304;28;20040;-64
2022/06/10 09:32:10;;;;;;;14.40;4.68;;;18.50;99.90;;;;;;5050467;28;20045;-64
2022/06/10 09:34:50;;;;;;;13.57;4.97;;;18.70;99.90;;;;;;5049390;28;20174;-64
2022/06/10 09:37:30;;;;;;;12.65;4.80;;;18.80;99.90;;;;;;5049657;28;20053;-63
2022/06/10 09:43:13;;;;;;;11.27;4.55;;;18.80;99.90;;;;;;5050940;28;20446;-63
2022/06/10 09:45:49;;;;;;;11.13;4.57;;;18.70;99.90;;;;;;5053106;28;20045;-64
2022/06/10 09:48:28;;;;;;;10.60;4.53;;;18.70;99.90;;;;;;5054255;28;20045;-63
2022/06/10 09:51:13;;;;;;;12.75;4.47;;;18.70;99.90;;;;;;5053887;28;20489;-63
2022/06/10 09:53:48;;;;;;;8.80;4.18;;;18.70;99.90;;;;;;5053359;28;20512;-66
2022/06/10 09:56:35;;;;;;;8.98;4.47;;;18.70;99.90;;;;;;5054185;28;20048;-64
2022/06/10 09:59:28;;;;;;;13.45;4.13;;;18.70;99.90;;;;;;5053550;28;20067;-63
2022/06/10 10:02:16;;;;;;;8.98;3.63;;;18.70;99.90;;;;;;5084770;28;20060;-63
2022/06/10 10:04:48;;;;;;;7.50;3.60;;;18.60;99.90;;;;;;5035971;28;20048;-65
2022/06/10 10:07:25;;;;;;;10.32;3.80;;;18.60;99.90;;;;;;5069676;28;20064;-65
2022/06/10 10:09:57;;;;;;;8.65;4.00;;;18.70;99.90;;;;;;5053606;28;20138;-63
2022/06/10 10:12:23;;;;;;;14.55;5.03;;;18.70;99.90;;;;;;5053605;28;20063;-63
2022/06/10 10:15:20;;;;;;;9.35;4.25;;;18.80;99.90;;;;;;5053598;28;20049;-64
2022/06/10 10:18:07;;;;;;;9.23;4.20;;;18.80;99.90;;;;;;5052517;28;20564;-64
2022/06/10 10:20:48;;;;;;;15.48;4.60;;;18.80;99.90;;;;;;5053339;28;20060;-63
2022/06/10 10:23:28;;;;;;;13.55;5.30;;;18.80;99.90;;;;;;5052674;28;20045;-64
2022/06/10 10:25:54;;;;;;;13.68;4.80;;;18.80;99.90;;;;;;5053963;28;20114;-63
2022/06/10 10:28:35;;;;;;;10.50;5.22;;;18.80;99.90;;;;;;5053675;28;20045;-66
2022/06/10 10:31:09;;;;;;;14.43;5.60;;;18.80;99.90;;;;;;5052378;28;20053;-62
2022/06/10 10:33:35;;;;;;;12.17;5.33;;;18.80;99.90;;;;;;5052834;28;20063;-64
2022/06/10 10:36:01;;;;;;;13.30;4.93;;;18.80;99.90;;;;;;5053256;28;20461;-64
2022/06/10 10:38:37;;;;;;;11.90;5.10;;;18.90;99.90;;;;;;5035483;28;20083;-63
2022/06/10 10:41:17;;;;;;;14.18;4.85;;;19.00;99.90;;;;;;5053413;28;20052;-62
2022/06/10 10:43:46;;;;;;;15.50;5.60;;;19.20;99.90;;;;;;5052844;28;20137;-62
2022/06/10 10:46:34;;;;;;;9.20;4.10;;;19.40;99.90;;;;;;5068877;28;20394;-63
2022/06/10 10:49:04;;;;;;;12.13;4.82;;;19.60;99.90;;;;;;5053213;28;20041;-62
2022/06/10 10:51:36;;;;;;;10.80;4.53;;;19.60;99.90;;;;;;5053188;28;20555;-63
2022/06/10 10:54:22;;;;;;;27.50;5.85;;;19.60;99.90;;;;;;5052123;28;20132;-65
2022/06/10 10:56:49;;;;;;;13.18;4.75;;;19.60;99.90;;;;;;5052523;28;20056;-63
2022/06/10 10:59:31;;;;;;;19.20;5.22;;;19.60;99.90;;;;;;5052415;28;20107;-63
2022/06/10 11:01:58;;;;;;;10.45;4.88;;;19.60;99.90;;;;;;5052978;28;20048;-65
2022/06/10 11:04:36;;;;;;;10.25;4.72;;;19.50;99.90;;;;;;5052895;28;20490;-63
2022/06/10 11:07:18;;;;;;;52.22;7.93;;;19.40;99.90;;;;;;5052544;28;20494;-64
2022/06/10 11:09:52;;;;;;;14.70;5.18;;;19.40;99.90;;;;;;5085002;28;20163;-64
2022/06/10 11:12:20;;;;;;;;;;;19.30;99.90;;;;;;5052164;28;20052;-67
2022/06/10 11:14:49;;;;;;;15.38;5.50;;;19.40;99.90;;;;;;5052177;28;19983;-63
2022/06/10 11:17:19;;;;;;;13.23;4.45;;;19.40;99.90;;;;;;5052421;28;20517;-62
2022/06/10 11:19:59;;;;;;;11.75;4.45;;;19.40;99.90;;;;;;5052436;28;20059;-63
2022/06/10 11:22:34;;;;;;;12.90;4.28;;;19.40;99.90;;;;;;5052524;28;20045;-64
2022/06/10 11:25:02;;;;;;;10.27;4.80;;;19.50;99.90;;;;;;5052095;28;20052;-64
2022/06/10 11:27:41;;;;;;;11.57;4.85;;;19.70;99.90;;;;;;5067958;28;20056;-61
2022/06/10 11:30:19;;;;;;;11.25;4.53;;;19.70;99.90;;;;;;5050970;28;20051;-62
2022/06/10 11:32:58;;;;;;;11.98;4.47;;;19.80;99.90;;;;;;5051977;28;20440;-63
2022/06/10 11:35:40;;;;;;;17.20;4.95;;;19.80;99.90;;;;;;5052356;28;20053;-64
2022/06/10 11:38:09;;;;;;;9.88;4.07;;;19.80;99.90;;;;;;5052415;28;20056;-62
2022/06/10 11:40:47;;;;;;;10.88;4.32;;;19.80;99.90;;;;;;5052062;28;20063;-62
2022/06/10 11:43:12;;;;;;;12.50;4.25;;;19.90;99.90;;;;;;5051956;28;20496;-62
2022/06/10 11:45:48;;;;;;;8.80;3.67;;;20.00;99.90;;;;;;5052182;28;20041;-63
2022/06/10 11:48:34;;;;;;;7.70;4.10;;;20.20;99.90;;;;;;5052189;28;20075;-62
2022/06/10 11:51:15;;;;;;;7.72;3.90;;;20.30;99.90;;;;;;5051860;28;20132;-63
2022/06/10 11:54:08;;;;;;;7.88;4.22;;;20.20;99.90;;;;;;5051912;28;20041;-69
2022/06/10 12:06:17;;;;;;;8.02;3.47;;;20.10;99.90;;;;;;4799877;29;19964;-64
2022/06/10 12:08:58;;;;;;;11.02;3.55;;;20.20;99.90;;;;;;4802189;29;20073;-64
2022/06/10 12:11:42;;;;;;;10.00;3.67;;;20.40;99.90;;;;;;4802739;29;20111;-70
2022/06/10 12:14:55;;;;;;;10.52;4.25;;;20.60;99.90;;;;;;4802646;29;20212;-65
2022/06/10 12:17:35;;;;;;;8.43;3.67;;;20.90;99.90;;;;;;4765818;29;20117;-65
2022/06/10 12:20:17;;;;;;;9.52;3.80;;;21.00;99.90;;;;;;4798846;29;20061;-65
2022/06/10 12:22:43;;;;;;;9.43;3.75;;;21.20;99.90;;;;;;4771379;29;20062;-65
2022/06/10 12:25:28;;;;;;;8.25;3.88;;;21.20;99.90;;;;;;4786920;29;20058;-64
2022/06/10 12:28:06;;;;;;;9.60;3.35;;;21.10;99.90;;;;;;4802981;29;20104;-64
2022/06/10 12:30:42;;;;;;;7.82;3.45;;;21.00;99.90;;;;;;4802466;29;20671;-64
2022/06/10 12:33:17;;;;;;;10.27;4.13;;;21.00;99.90;;;;;;4802767;29;20054;-64
2022/06/10 12:35:44;;;;;;;10.95;3.97;;;21.00;99.90;;;;;;4786551;29;20418;-65
2022/06/10 12:38:26;;;;;;;10.73;4.53;;;21.00;99.90;;;;;;4801817;29;20047;-62
2022/06/10 12:41:01;;;;;;;8.93;3.90;;;21.00;99.90;;;;;;4800637;29;20050;-62
2022/06/10 12:43:31;;;;;;;9.85;3.90;;;21.00;99.90;;;;;;4802354;29;20057;-67
2022/06/10 12:46:03;;;;;;;12.10;4.55;;;21.10;99.90;;;;;;4786230;29;20063;-63
2022/06/10 12:48:41;;;;;;;10.70;3.83;;;21.00;99.90;;;;;;4802562;29;20754;-68
2022/06/10 12:51:07;;;;;;;8.73;3.72;;;21.00;99.90;;;;;;4802703;29;20089;-65
2022/06/10 12:53:44;;;;;;;14.35;4.60;;;21.00;99.90;;;;;;4801990;29;20059;-65
2022/06/10 12:56:31;;;;;;;10.55;4.10;;;20.90;99.90;;;;;;4785554;29;20149;-64
2022/06/10 12:59:11;;;;;;;11.65;3.70;;;20.90;99.90;;;;;;4802456;29;20497;-62
2022/06/10 13:01:37;;;;;;;10.63;3.80;;;20.90;99.90;;;;;;4801247;29;20099;-63
2022/06/10 13:04:08;;;;;;;9.95;4.32;;;21.00;99.90;;;;;;4801900;29;20070;-63
2022/06/10 13:06:43;;;;;;;9.38;3.80;;;21.10;99.90;;;;;;4792221;29;20059;-70
2022/06/10 13:09:12;;;;;;;8.85;3.45;;;21.00;99.90;;;;;;4802914;29;20061;-64
2022/06/10 13:11:44;;;;;;;9.45;3.60;;;21.00;99.90;;;;;;4800298;29;20050;-65
2022/06/10 13:19:39;;;;;;;11.30;4.20;;;21.10;99.90;;;;;;4832828;24;19924;-65
2022/06/10 13:22:20;;;;;;;8.77;3.50;;;21.10;99.90;;;;;;4822914;29;20042;-64
2022/06/10 13:24:52;;;;;;;10.70;3.80;;;21.20;99.90;;;;;;4821867;29;20058;-67
2022/06/10 13:27:42;;;;;;;7.80;3.25;;;21.20;99.90;;;;;;4823075;29;20053;-65
2022/06/10 13:30:16;;;;;;;7.78;3.60;;;21.30;99.90;;;;;;4817318;29;20361;-64
2022/06/10 13:32:46;;;;;;;8.68;3.65;;;21.40;99.90;;;;;;4822834;29;20054;-64
2022/06/10 13:35:23;;;;;;;7.80;3.53;;;21.40;99.90;;;;;;4822399;29;20061;-64
2022/06/10 13:37:56;;;;;;;11.85;3.58;;;21.50;99.90;;;;;;4823165;29;20058;-63
2022/06/10 13:40:25;;;;;;;7.18;2.95;;;21.60;99.90;;;;;;4823542;29;20069;-65
2022/06/10 13:42:54;;;;;;;8.95;2.92;;;21.70;99.90;;;;;;4823137;29;20046;-62
2022/06/10 13:45:25;;;;;;;7.15;2.70;;;21.80;99.90;;;;;;4822762;29;20090;-64